Time;durP1;ratioP1;P1;durP2;ratioP2;P2;SDS_P1;SDS_P2;PMS_P1;PMS_P2;Temp;Humidity;BMP_temperature;BMP_pressure;BME280_temperature;BME280_humidity;BME280_pressure;Samples;Min_cycle;Max_cycle;Signal;HPM_P1;HPM_P2
2021/07/28 00:01:49;;;;;;;8.30;4.20;;;;;;;;;;5076905;28;20090;-82
2021/07/28 00:04:14;;;;;;;7.80;3.92;;;;;;;;;;5059857;28;20020;-82
2021/07/28 00:06:40;;;;;;;10.50;3.97;;;;;;;;;;5059953;28;20045;-81
2021/07/28 00:09:05;;;;;;;5.70;3.53;;;;;;;;;;5077303;28;20032;-81
2021/07/28 00:11:30;;;;;;;9.15;3.75;;;;;;;;;;5077138;28;20385;-81
2021/07/28 00:13:56;;;;;;;7.80;3.60;;;;;;;;;;5059416;28;20043;-81
2021/07/28 00:16:21;;;;;;;4.15;3.40;;;;;;;;;;5059391;28;20040;-81
2021/07/28 00:23:59;;;;;;;8.27;4.20;;;;;;;;;;5075849;28;20048;-81
2021/07/28 00:26:24;;;;;;;6.88;3.67;;;;;;;;;;5076172;28;20522;-81
2021/07/28 00:28:50;;;;;;;8.02;3.92;;;;;;;;;;5058664;28;20048;-81
2021/07/28 00:31:16;;;;;;;10.57;4.20;;;;;;;;;;5059129;28;20468;-81
2021/07/28 00:33:42;;;;;;;8.93;3.78;;;;;;;;;;5059233;28;20033;-81
2021/07/28 00:36:07;;;;;;;5.70;3.85;;;;;;;;;;5055501;28;20116;-81
2021/07/28 00:38:32;;;;;;;4.68;3.17;;;;;;;;;;5074374;28;20040;-81
2021/07/28 00:40:58;;;;;;;8.57;3.50;;;;;;;;;;5059683;28;20059;-81
2021/07/28 00:43:25;;;;;;;6.28;3.42;;;;;;;;;;5059206;28;20064;-81
2021/07/28 00:45:50;;;;;;;4.93;3.45;;;;;;;;;;5042882;28;20079;-81
2021/07/28 00:48:16;;;;;;;6.03;3.63;;;;;;;;;;5059170;28;20037;-81
2021/07/28 00:50:43;;;;;;;6.03;3.70;;;;;;;;;;5042687;28;20033;-81
2021/07/28 00:53:17;;;;;;;5.20;3.75;;;;;;;;;;5042416;28;20536;-81
2021/07/28 00:55:42;;;;;;;5.93;3.80;;;;;;;;;;5058630;28;20039;-81
2021/07/28 00:58:08;;;;;;;8.45;3.55;;;;;;;;;;5042245;28;20090;-81
2021/07/28 01:00:33;;;;;;;5.63;3.90;;;;;;;;;;5059577;28;20033;-81
2021/07/28 01:02:59;;;;;;;4.32;3.53;;;;;;;;;;5059107;28;20033;-81
2021/07/28 01:05:25;;;;;;;9.60;4.00;;;;;;;;;;5059066;28;20104;-81
2021/07/28 01:07:50;;;;;;;5.32;3.70;;;;;;;;;;5042357;28;20381;-81
2021/07/28 01:10:16;;;;;;;7.07;3.45;;;;;;;;;;5058626;28;20037;-80
2021/07/28 01:12:44;;;;;;;5.88;3.88;;;;;;;;;;5074637;28;20043;-81
2021/07/28 01:15:12;;;;;;;5.63;3.42;;;;;;;;;;5062318;28;20040;-81
2021/07/28 01:17:38;;;;;;;6.78;3.67;;;;;;;;;;5079215;28;20101;-81
2021/07/28 01:20:07;;;;;;;5.15;3.53;;;;;;;;;;5062291;28;20072;-81
2021/07/28 01:22:34;;;;;;;5.60;3.25;;;;;;;;;;5078597;28;20127;-81
2021/07/28 01:24:59;;;;;;;5.88;3.28;;;;;;;;;;5078984;28;20124;-81
2021/07/28 01:27:26;;;;;;;7.63;3.20;;;;;;;;;;5078616;28;20059;-81
2021/07/28 01:29:52;;;;;;;4.78;3.67;;;;;;;;;;5062433;28;20032;-81
2021/07/28 01:32:17;;;;;;;9.02;4.15;;;;;;;;;;5062860;28;20060;-81
2021/07/28 01:34:44;;;;;;;7.43;3.65;;;;;;;;;;5062456;28;20059;-81
2021/07/28 01:37:12;;;;;;;4.25;2.50;;;;;;;;;;5061524;28;20074;-81
2021/07/28 01:39:38;;;;;;;7.10;2.40;;;;;;;;;;5061679;28;20131;-81
2021/07/28 01:42:04;;;;;;;4.40;3.00;;;;;;;;;;5061367;28;20036;-81
2021/07/28 01:44:32;;;;;;;9.45;3.53;;;;;;;;;;5060686;28;20039;-80
2021/07/28 01:46:57;;;;;;;7.43;3.70;;;;;;;;;;5078684;28;20071;-81
2021/07/28 01:49:23;;;;;;;6.97;3.88;;;;;;;;;;5077765;28;20090;-81
2021/07/28 01:51:48;;;;;;;5.50;3.53;;;;;;;;;;5061475;28;20029;-81
2021/07/28 01:54:14;;;;;;;9.05;3.97;;;;;;;;;;5060858;28;20476;-81
2021/07/28 01:56:42;;;;;;;8.88;4.00;;;;;;;;;;5061554;28;20040;-81
2021/07/28 01:59:10;;;;;;;7.10;4.55;;;;;;;;;;5061174;28;20052;-81
2021/07/28 02:01:36;;;;;;;5.28;3.88;;;;;;;;;;5078155;28;20060;-80
2021/07/28 02:04:01;;;;;;;7.35;4.57;;;;;;;;;;5061542;28;20036;-81
2021/07/28 02:06:27;;;;;;;8.23;4.47;;;;;;;;;;5061453;28;20043;-81
2021/07/28 02:08:52;;;;;;;9.70;3.95;;;;;;;;;;5079750;28;20298;-81
2021/07/28 02:11:18;;;;;;;9.85;4.72;;;;;;;;;;5078805;28;20363;-81
2021/07/28 02:13:43;;;;;;;6.55;4.40;;;;;;;;;;5058716;28;20043;-81
2021/07/28 02:16:08;;;;;;;8.35;4.03;;;;;;;;;;5058311;28;20098;-82
2021/07/28 02:18:34;;;;;;;4.70;3.90;;;;;;;;;;5057558;28;20041;-78
2021/07/28 02:21:01;;;;;;;5.22;3.47;;;;;;;;;;5041121;28;20899;-80
2021/07/28 02:23:27;;;;;;;6.25;3.22;;;;;;;;;;5040957;28;20489;-81
2021/07/28 02:25:52;;;;;;;5.20;3.78;;;;;;;;;;5056721;28;20043;-80
2021/07/28 02:28:18;;;;;;;4.38;3.63;;;;;;;;;;5058635;28;20032;-80
2021/07/28 02:30:44;;;;;;;6.50;3.42;;;;;;;;;;5058290;28;20120;-81
2021/07/28 02:33:09;;;;;;;7.28;4.25;;;;;;;;;;5041683;28;20405;-80
2021/07/28 02:35:35;;;;;;;11.38;3.13;;;;;;;;;;5056560;28;20131;-80
2021/07/28 02:38:02;;;;;;;6.65;4.30;;;;;;;;;;5041925;28;20074;-80
2021/07/28 02:40:28;;;;;;;6.82;4.22;;;;;;;;;;5057661;28;20037;-81
2021/07/28 02:42:53;;;;;;;7.50;4.45;;;;;;;;;;5058755;28;20039;-80
2021/07/28 02:45:19;;;;;;;5.97;4.40;;;;;;;;;;5058938;28;20032;-81
2021/07/28 02:47:45;;;;;;;6.38;4.28;;;;;;;;;;5079049;28;20072;-81
2021/07/28 02:50:10;;;;;;;11.27;5.35;;;;;;;;;;5078494;28;20067;-84
2021/07/28 02:52:36;;;;;;;9.88;5.07;;;;;;;;;;5063443;28;20044;-85
2021/07/28 02:55:05;;;;;;;18.85;4.82;;;;;;;;;;5063075;28;20107;-85
2021/07/28 02:57:36;;;;;;;8.02;4.55;;;;;;;;;;5063939;28;20037;-86
2021/07/28 03:00:04;;;;;;;7.43;4.68;;;;;;;;;;5059774;28;20040;-85
2021/07/28 03:02:30;;;;;;;12.48;4.30;;;;;;;;;;5062817;28;20032;-85
2021/07/28 03:04:55;;;;;;;9.95;4.22;;;;;;;;;;5063830;28;20087;-85
2021/07/28 03:07:20;;;;;;;6.45;3.30;;;;;;;;;;5063666;28;20404;-84
2021/07/28 03:09:46;;;;;;;9.82;3.65;;;;;;;;;;5080144;28;20112;-84
2021/07/28 03:12:11;;;;;;;7.55;3.38;;;;;;;;;;5063232;28;20032;-84
2021/07/28 03:14:37;;;;;;;6.50;4.20;;;;;;;;;;5079418;28;20123;-84
2021/07/28 03:17:03;;;;;;;11.98;4.45;;;;;;;;;;5080068;28;20041;-84
2021/07/28 03:19:28;;;;;;;10.18;4.60;;;;;;;;;;5062673;28;20123;-84
2021/07/28 03:21:53;;;;;;;11.73;5.38;;;;;;;;;;5078751;28;20071;-84
2021/07/28 03:24:19;;;;;;;16.23;4.90;;;;;;;;;;5078605;28;20508;-84
2021/07/28 03:26:46;;;;;;;12.93;5.30;;;;;;;;;;5061845;28;20040;-84
2021/07/28 03:29:13;;;;;;;9.02;4.55;;;;;;;;;;5061752;28;20033;-84
2021/07/28 03:31:38;;;;;;;10.20;5.90;;;;;;;;;;5062398;28;20067;-84
2021/07/28 03:34:03;;;;;;;10.52;5.95;;;;;;;;;;5062048;28;20170;-83
2021/07/28 03:36:29;;;;;;;50.90;8.27;;;;;;;;;;5061741;28;20037;-84
2021/07/28 03:38:55;;;;;;;13.20;7.75;;;;;;;;;;5058404;28;20078;-84
2021/07/28 03:41:20;;;;;;;19.85;8.07;;;;;;;;;;5041528;28;20029;-84
2021/07/28 03:43:46;;;;;;;19.15;7.57;;;;;;;;;;5058914;28;20502;-84
2021/07/28 03:46:12;;;;;;;18.95;5.85;;;;;;;;;;5043483;28;20040;-84
2021/07/28 03:48:37;;;;;;;12.48;7.10;;;;;;;;;;5042828;28;20037;-84
2021/07/28 03:51:02;;;;;;;56.13;7.40;;;;;;;;;;5057879;28;20037;-85
2021/07/28 03:53:28;;;;;;;10.38;6.43;;;;;;;;;;5041305;28;20043;-84
2021/07/28 03:55:55;;;;;;;19.13;6.55;;;;;;;;;;5040545;28;20040;-84
2021/07/28 03:58:21;;;;;;;8.07;6.18;;;;;;;;;;5055707;28;20033;-84
2021/07/28 04:00:47;;;;;;;8.77;5.93;;;;;;;;;;5061227;28;20060;-83
2021/07/28 04:03:12;;;;;;;8.52;5.95;;;;;;;;;;5061718;28;20040;-84
2021/07/28 04:05:38;;;;;;;9.70;5.88;;;;;;;;;;5077725;28;20120;-83
2021/07/28 04:08:03;;;;;;;17.85;6.82;;;;;;;;;;5061595;28;20032;-84
2021/07/28 04:10:30;;;;;;;10.82;5.72;;;;;;;;;;5061596;28;20037;-84
2021/07/28 04:12:56;;;;;;;31.58;7.30;;;;;;;;;;5059831;28;20039;-84
2021/07/28 04:15:23;;;;;;;9.93;6.70;;;;;;;;;;5063692;28;20028;-84
2021/07/28 04:17:49;;;;;;;15.30;6.78;;;;;;;;;;5063741;28;20123;-84
2021/07/28 04:20:15;;;;;;;15.90;6.70;;;;;;;;;;5062445;28;20060;-84
2021/07/28 04:22:41;;;;;;;15.98;7.60;;;;;;;;;;5063246;28;20036;-84
2021/07/28 04:25:10;;;;;;;8.05;6.32;;;;;;;;;;5071984;28;20411;-84
2021/07/28 04:27:36;;;;;;;18.42;6.80;;;;;;;;;;5097050;28;20096;-84
2021/07/28 04:30:01;;;;;;;10.77;6.35;;;;;;;;;;5078825;28;20124;-84
2021/07/28 04:32:28;;;;;;;7.25;6.22;;;;;;;;;;5078451;28;20120;-84
2021/07/28 04:34:54;;;;;;;7.80;5.57;;;;;;;;;;5094453;28;20388;-84
2021/07/28 04:37:21;;;;;;;11.20;6.95;;;;;;;;;;5077716;28;20047;-84
2021/07/28 04:39:48;;;;;;;23.42;5.68;;;;;;;;;;5077837;28;20172;-84
2021/07/28 04:42:16;;;;;;;7.28;5.53;;;;;;;;;;5100743;28;20036;-84
2021/07/28 04:44:42;;;;;;;14.88;5.88;;;;;;;;;;5104976;28;20400;-84
2021/07/28 04:47:09;;;;;;;10.48;5.55;;;;;;;;;;5060318;28;20040;-84
2021/07/28 04:49:35;;;;;;;11.43;5.97;;;;;;;;;;5059551;28;20029;-84
2021/07/28 04:52:01;;;;;;;8.23;6.15;;;;;;;;;;5059316;28;20035;-85
2021/07/28 04:54:28;;;;;;;7.38;5.60;;;;;;;;;;5059172;28;20131;-84
2021/07/28 04:56:55;;;;;;;10.32;5.70;;;;;;;;;;5076419;28;20123;-84
2021/07/28 04:59:21;;;;;;;6.30;5.50;;;;;;;;;;5060067;28;20098;-84
2021/07/28 05:01:47;;;;;;;8.27;6.00;;;;;;;;;;5058559;28;20028;-84
2021/07/28 05:04:13;;;;;;;7.97;5.80;;;;;;;;;;5075196;28;20127;-84
2021/07/28 05:06:41;;;;;;;6.72;6.03;;;;;;;;;;5075505;28;20036;-84
2021/07/28 05:09:08;;;;;;;8.52;5.75;;;;;;;;;;5075368;28;20032;-84
2021/07/28 05:11:34;;;;;;;10.13;5.95;;;;;;;;;;5075483;28;20033;-83
2021/07/28 05:14:00;;;;;;;6.07;5.18;;;;;;;;;;5075551;28;20033;-84
2021/07/28 05:16:26;;;;;;;6.28;5.22;;;;;;;;;;5058618;28;20049;-84
2021/07/28 05:18:52;;;;;;;6.20;4.63;;;;;;;;;;5074704;28;20492;-85
2021/07/28 05:21:17;;;;;;;6.65;4.50;;;;;;;;;;5058215;28;20062;-85
2021/07/28 05:23:44;;;;;;;6.50;4.38;;;;;;;;;;5078696;28;20123;-85
2021/07/28 05:26:10;;;;;;;10.05;3.85;;;;;;;;;;5102453;28;20035;-84
2021/07/28 05:28:35;;;;;;;6.22;4.00;;;;;;;;;;5085420;28;20034;-84
2021/07/28 05:31:01;;;;;;;8.10;5.05;;;;;;;;;;5085244;28;20035;-84
2021/07/28 05:33:30;;;;;;;12.70;4.60;;;;;;;;;;5101862;28;20028;-84
2021/07/28 05:35:55;;;;;;;7.22;4.63;;;;;;;;;;5102588;28;20035;-85
2021/07/28 05:38:21;;;;;;;10.65;4.93;;;;;;;;;;5086870;28;20055;-85
2021/07/28 05:40:46;;;;;;;11.38;4.78;;;;;;;;;;5103290;28;20096;-84
2021/07/28 05:43:12;;;;;;;7.05;5.25;;;;;;;;;;5107107;28;20032;-84
2021/07/28 05:45:37;;;;;;;5.72;4.53;;;;;;;;;;5091650;28;20024;-85
2021/07/28 05:48:03;;;;;;;11.38;5.30;;;;;;;;;;5088665;28;20601;-82
2021/07/28 05:50:28;;;;;;;13.70;4.72;;;;;;;;;;5068169;28;20046;-85
2021/07/28 05:52:53;;;;;;;8.13;4.50;;;;;;;;;;5067610;28;20032;-80
2021/07/28 05:55:19;;;;;;;11.25;4.97;;;;;;;;;;5100546;28;20032;-82
2021/07/28 05:57:47;;;;;;;10.23;4.70;;;;;;;;;;5065451;28;20073;-83
2021/07/28 06:00:13;;;;;;;8.90;4.15;;;;;;;;;;5082429;28;20109;-83
2021/07/28 06:02:39;;;;;;;6.60;4.47;;;;;;;;;;5065049;28;20554;-83
2021/07/28 06:05:04;;;;;;;8.70;4.40;;;;;;;;;;5065976;28;20036;-84
2021/07/28 06:07:30;;;;;;;7.32;4.50;;;;;;;;;;5065735;28;20062;-83
2021/07/28 06:09:55;;;;;;;5.55;4.68;;;;;;;;;;5073805;28;20558;-83
2021/07/28 06:12:27;;;;;;;9.23;4.95;;;;;;;;;;5083062;28;20036;-84
2021/07/28 06:14:53;;;;;;;7.80;4.53;;;;;;;;;;5101102;28;20040;-82
2021/07/28 06:17:19;;;;;;;10.23;4.90;;;;;;;;;;5085882;28;20042;-83
2021/07/28 06:19:44;;;;;;;7.43;5.00;;;;;;;;;;5085997;28;20112;-82
2021/07/28 06:22:10;;;;;;;10.70;5.07;;;;;;;;;;5085952;28;20494;-84
2021/07/28 06:24:35;;;;;;;9.52;4.30;;;;;;;;;;5085996;28;20039;-83
2021/07/28 06:27:03;;;;;;;5.68;4.63;;;;;;;;;;5103687;28;20048;-84
2021/07/28 06:29:29;;;;;;;6.28;4.55;;;;;;;;;;5084669;28;20071;-84
2021/07/28 06:31:54;;;;;;;5.65;4.20;;;;;;;;;;5100529;28;20035;-85
2021/07/28 06:34:20;;;;;;;4.95;4.07;;;;;;;;;;5105325;28;20085;-80
2021/07/28 06:36:46;;;;;;;6.32;4.65;;;;;;;;;;5119169;28;20131;-83
2021/07/28 06:39:13;;;;;;;12.27;4.85;;;;;;;;;;5105054;28;20028;-85
2021/07/28 06:41:38;;;;;;;13.35;5.80;;;;;;;;;;5087692;28;20061;-83
2021/07/28 06:44:04;;;;;;;5.30;4.05;;;;;;;;;;5084968;28;20028;-84
2021/07/28 06:46:30;;;;;;;15.10;4.65;;;;;;;;;;5066910;28;20039;-81
2021/07/28 06:48:55;;;;;;;11.27;4.60;;;;;;;;;;5080922;28;20047;-81
2021/07/28 06:51:22;;;;;;;12.38;4.82;;;;;;;;;;5081059;28;20051;-81
2021/07/28 06:53:48;;;;;;;10.07;4.63;;;;;;;;;;5081840;28;20103;-79
2021/07/28 06:56:14;;;;;;;7.47;4.75;;;;;;;;;;5078917;28;20071;-85
2021/07/28 06:58:41;;;;;;;9.23;4.38;;;;;;;;;;5080515;28;20024;-85
2021/07/28 07:01:08;;;;;;;5.65;4.20;;;;;;;;;;5078819;28;20031;-84
2021/07/28 07:03:35;;;;;;;11.80;4.47;;;;;;;;;;5101775;28;20047;-86
2021/07/28 07:06:03;;;;;;;9.88;4.80;;;;;;;;;;5078027;28;20453;-86
2021/07/28 07:08:29;;;;;;;10.18;4.20;;;;;;;;;;5063838;28;20110;-85
2021/07/28 07:10:56;;;;;;;8.23;4.47;;;;;;;;;;5082168;28;20035;-80
2021/07/28 07:13:21;;;;;;;9.68;4.22;;;;;;;;;;5081617;28;20043;-81
2021/07/28 07:15:48;;;;;;;7.28;3.90;;;;;;;;;;5102803;28;20035;-79
2021/07/28 07:18:14;;;;;;;12.05;4.40;;;;;;;;;;5102019;28;20031;-83
2021/07/28 07:20:39;;;;;;;6.47;4.25;;;;;;;;;;5102169;28;20082;-78
2021/07/28 07:23:06;;;;;;;11.82;4.47;;;;;;;;;;5085960;28;20031;-84
2021/07/28 07:25:31;;;;;;;6.30;4.07;;;;;;;;;;5102604;28;20173;-85
2021/07/28 07:27:57;;;;;;;5.63;4.30;;;;;;;;;;5086899;28;20070;-85
2021/07/28 07:30:23;;;;;;;9.27;4.78;;;;;;;;;;5083824;28;20036;-85
2021/07/28 07:35:34;;;;;;;6.50;4.45;;;;;;;;;;5078773;28;20048;-85
2021/07/28 07:38:00;;;;;;;8.10;4.90;;;;;;;;;;5116127;28;20049;-85
2021/07/28 07:40:25;;;;;;;9.95;3.95;;;;;;;;;;5080639;28;20130;-85
2021/07/28 07:42:51;;;;;;;7.35;4.53;;;;;;;;;;5078740;28;20067;-85
2021/07/28 07:45:16;;;;;;;5.30;3.78;;;;;;;;;;5060859;28;20032;-85
2021/07/28 07:47:41;;;;;;;6.90;4.45;;;;;;;;;;5077250;28;20059;-85
2021/07/28 07:50:07;;;;;;;7.30;3.90;;;;;;;;;;5078055;28;20089;-84
2021/07/28 07:52:33;;;;;;;4.63;3.88;;;;;;;;;;5079747;28;20110;-85
2021/07/28 07:54:58;;;;;;;10.05;4.68;;;;;;;;;;5077053;28;20106;-85
2021/07/28 07:57:24;;;;;;;8.45;4.30;;;;;;;;;;5078619;28;20042;-85
2021/07/28 07:59:49;;;;;;;12.00;4.03;;;;;;;;;;5060258;28;20039;-86
2021/07/28 08:02:14;;;;;;;5.65;3.88;;;;;;;;;;5076275;28;20036;-86
2021/07/28 08:04:40;;;;;;;9.10;3.97;;;;;;;;;;5075736;28;20088;-85
2021/07/28 08:07:05;;;;;;;5.75;4.25;;;;;;;;;;5093738;28;20114;-86
2021/07/28 08:09:31;;;;;;;6.10;3.95;;;;;;;;;;5095636;28;20486;-86
2021/07/28 08:11:57;;;;;;;5.82;3.38;;;;;;;;;;5095552;28;20023;-86
2021/07/28 08:14:23;;;;;;;6.07;3.38;;;;;;;;;;5095506;28;20043;-86
2021/07/28 08:16:50;;;;;;;4.90;3.35;;;;;;;;;;5092139;28;20053;-85
2021/07/28 08:19:17;;;;;;;9.13;3.15;;;;;;;;;;5093264;28;20092;-86
2021/07/28 08:21:42;;;;;;;3.80;3.00;;;;;;;;;;5058483;28;20046;-87
2021/07/28 08:24:09;;;;;;;7.70;3.00;;;;;;;;;;5058467;28;20551;-87
2021/07/28 08:26:35;;;;;;;11.60;3.47;;;;;;;;;;5092182;28;20089;-87
2021/07/28 08:29:00;;;;;;;6.50;2.90;;;;;;;;;;5058574;28;20036;-88
2021/07/28 08:31:27;;;;;;;5.35;2.92;;;;;;;;;;5058512;28;20040;-86
2021/07/28 08:33:55;;;;;;;6.55;3.30;;;;;;;;;;5059036;28;20032;-86
2021/07/28 08:36:21;;;;;;;5.05;3.42;;;;;;;;;;5059321;28;20028;-85
2021/07/28 08:38:46;;;;;;;9.90;4.05;;;;;;;;;;5063232;28;20048;-85
2021/07/28 08:41:14;;;;;;;7.95;3.28;;;;;;;;;;5064970;28;20040;-85
2021/07/28 08:43:40;;;;;;;6.05;4.05;;;;;;;;;;5064167;28;20118;-85
2021/07/28 08:46:08;;;;;;;4.82;2.85;;;;;;;;;;5080700;28;20092;-85
2021/07/28 08:48:34;;;;;;;3.70;2.95;;;;;;;;;;5079961;28;20042;-85
2021/07/28 08:51:02;;;;;;;3.80;2.95;;;;;;;;;;5084484;28;20039;-85
2021/07/28 08:53:27;;;;;;;6.22;3.03;;;;;;;;;;5081822;28;20024;-85
2021/07/28 08:55:58;;;;;;;10.30;3.03;;;;;;;;;;5079503;28;20053;-85
2021/07/28 08:58:26;;;;;;;4.22;3.08;;;;;;;;;;5079240;28;20034;-86
2021/07/28 09:00:52;;;;;;;7.00;3.00;;;;;;;;;;5083948;28;20039;-85
2021/07/28 09:03:18;;;;;;;4.57;3.22;;;;;;;;;;5103067;28;20039;-85
2021/07/28 09:05:45;;;;;;;4.68;2.70;;;;;;;;;;5084399;28;20036;-86
2021/07/28 09:08:40;;;;;;;3.53;2.40;;;;;;;;;;5100826;28;20037;-85
2021/07/28 09:11:08;;;;;;;7.50;2.90;;;;;;;;;;5067391;28;20040;-85
2021/07/28 09:13:40;;;;;;;9.25;3.50;;;;;;;;;;5100368;28;20077;-85
2021/07/28 09:16:17;;;;;;;3.53;2.78;;;;;;;;;;5083572;28;20118;-86
2021/07/28 09:18:51;;;;;;;7.78;2.88;;;;;;;;;;5082911;28;20440;-85
2021/07/28 09:21:19;;;;;;;3.90;2.90;;;;;;;;;;5100286;28;20037;-85
2021/07/28 09:23:47;;;;;;;7.07;2.97;;;;;;;;;;5101819;28;20035;-86
2021/07/28 09:26:33;;;;;;;52.20;4.78;;;;;;;;;;5082316;28;20036;-86
2021/07/28 09:29:02;;;;;;;74.13;5.43;;;;;;;;;;5082708;28;20073;-86
2021/07/28 09:31:38;;;;;;;9.07;2.78;;;;;;;;;;5082542;28;20500;-85
2021/07/28 09:34:28;;;;;;;5.88;2.90;;;;;;;;;;5082165;28;20067;-85
2021/07/28 09:37:04;;;;;;;27.02;5.03;;;;;;;;;;5099040;28;20036;-86
2021/07/28 09:39:42;;;;;;;6.93;2.80;;;;;;;;;;5089453;28;20041;-85
2021/07/28 09:42:11;;;;;;;5.50;2.67;;;;;;;;;;5092801;28;20027;-85
2021/07/28 09:44:42;;;;;;;4.35;2.65;;;;;;;;;;5092397;28;20031;-86
2021/07/28 09:47:09;;;;;;;3.95;2.65;;;;;;;;;;5091994;28;20027;-85
2021/07/28 09:49:36;;;;;;;9.88;3.13;;;;;;;;;;5106303;28;20031;-84
2021/07/28 09:52:21;;;;;;;5.53;2.78;;;;;;;;;;5126502;28;20092;-86
2021/07/28 09:54:48;;;;;;;3.43;2.77;;;;;;;;;;5104801;28;20024;-84
2021/07/28 09:57:20;;;;;;;5.22;2.72;;;;;;;;;;5106931;28;20032;-85
2021/07/28 10:00:08;;;;;;;3.88;2.67;;;;;;;;;;5104655;28;20041;-85
2021/07/28 10:02:35;;;;;;;3.70;2.63;;;;;;;;;;5103142;28;20032;-84
2021/07/28 10:05:03;;;;;;;4.28;2.70;;;;;;;;;;5104543;28;20024;-85
2021/07/28 10:07:36;;;;;;;7.53;2.80;;;;;;;;;;5104013;28;20031;-85
2021/07/28 10:10:09;;;;;;;4.03;2.85;;;;;;;;;;5103072;28;20118;-85
2021/07/28 10:12:36;;;;;;;2.92;2.45;;;;;;;;;;5120645;28;20032;-82
2021/07/28 10:15:11;;;;;;;4.70;3.15;;;;;;;;;;5120618;28;20040;-82
2021/07/28 10:17:42;;;;;;;7.13;2.83;;;;;;;;;;5100656;28;20043;-84
2021/07/28 10:20:13;;;;;;;5.43;3.10;;;;;;;;;;5066737;28;20040;-86
2021/07/28 10:22:41;;;;;;;6.43;3.35;;;;;;;;;;5082336;28;20043;-84
2021/07/28 10:25:17;;;;;;;5.22;3.03;;;;;;;;;;5101103;28;20105;-81
2021/07/28 10:27:49;;;;;;;7.03;2.65;;;;;;;;;;5084527;28;20036;-84
2021/07/28 10:30:18;;;;;;;5.20;3.08;;;;;;;;;;5108184;28;20090;-85
2021/07/28 10:32:45;;;;;;;5.85;3.65;;;;;;;;;;5103918;27;20031;-86
2021/07/28 10:35:16;;;;;;;4.80;2.90;;;;;;;;;;5112750;27;20039;-85
2021/07/28 10:37:43;;;;;;;3.88;2.95;;;;;;;;;;5124420;27;20114;-86
2021/07/28 10:40:24;;;;;;;4.97;3.30;;;;;;;;;;5123127;27;20123;-85
2021/07/28 10:42:53;;;;;;;4.10;3.00;;;;;;;;;;5106514;27;20087;-84
2021/07/28 10:45:19;;;;;;;6.68;3.20;;;;;;;;;;5105894;28;20043;-85
2021/07/28 10:47:48;;;;;;;4.50;3.17;;;;;;;;;;5102035;28;20040;-84
2021/07/28 10:50:25;;;;;;;7.65;3.50;;;;;;;;;;5066593;28;20131;-82
2021/07/28 10:52:52;;;;;;;13.25;3.53;;;;;;;;;;5098915;28;20093;-82
2021/07/28 10:55:19;;;;;;;5.70;3.00;;;;;;;;;;5100705;28;20032;-83
2021/07/28 10:57:54;;;;;;;6.68;3.42;;;;;;;;;;5104914;28;20035;-82
2021/07/28 11:00:35;;;;;;;4.20;3.20;;;;;;;;;;5101559;28;20054;-81
2021/07/28 11:03:00;;;;;;;4.90;3.70;;;;;;;;;;5101679;28;20098;-81
2021/07/28 11:05:26;;;;;;;6.65;3.75;;;;;;;;;;5101028;28;20028;-84
2021/07/28 11:07:58;;;;;;;5.43;3.95;;;;;;;;;;5102425;28;20032;-83
2021/07/28 11:10:24;;;;;;;6.13;3.50;;;;;;;;;;5099688;28;20080;-82
2021/07/28 11:12:52;;;;;;;6.85;3.28;;;;;;;;;;5083847;28;20050;-83
2021/07/28 11:15:19;;;;;;;5.65;3.60;;;;;;;;;;5083071;28;20045;-83
2021/07/28 11:17:45;;;;;;;9.70;3.72;;;;;;;;;;5088641;28;20040;-83
2021/07/28 11:20:34;;;;;;;6.70;3.90;;;;;;;;;;5115275;27;20122;-84
2021/07/28 11:23:28;;;;;;;10.48;3.42;;;;;;;;;;5106959;27;20525;-83
2021/07/28 11:25:57;;;;;;;5.22;3.38;;;;;;;;;;5082582;28;20048;-81
2021/07/28 11:28:23;;;;;;;7.45;3.47;;;;;;;;;;5068258;28;20032;-80
2021/07/28 11:31:01;;;;;;;4.55;3.08;;;;;;;;;;5088919;28;20485;-83
2021/07/28 11:33:28;;;;;;;6.22;3.60;;;;;;;;;;5126037;27;20023;-83
2021/07/28 11:35:55;;;;;;;7.75;3.58;;;;;;;;;;5113765;27;20035;-83
2021/07/28 11:38:27;;;;;;;5.88;3.10;;;;;;;;;;5116017;27;20561;-83
2021/07/28 11:40:55;;;;;;;7.82;3.85;;;;;;;;;;5132735;27;20124;-83
2021/07/28 11:43:26;;;;;;;7.13;3.50;;;;;;;;;;5112978;27;20039;-82
2021/07/28 11:45:53;;;;;;;4.97;3.17;;;;;;;;;;5111167;28;20028;-83
2021/07/28 11:48:41;;;;;;;4.55;2.88;;;;;;;;;;5110480;28;20032;-83
2021/07/28 11:51:09;;;;;;;6.00;3.35;;;;;;;;;;5101797;28;20032;-83
2021/07/28 11:53:36;;;;;;;3.83;3.10;;;;;;;;;;5119436;28;20043;-83
2021/07/28 11:56:13;;;;;;;6.18;2.85;;;;;;;;;;5101535;28;20554;-83
2021/07/28 11:58:47;;;;;;;7.35;2.85;;;;;;;;;;5101211;28;20036;-83
2021/07/28 12:01:21;;;;;;;5.72;2.97;;;;;;;;;;5084007;28;20123;-83
2021/07/28 12:04:03;;;;;;;3.08;2.30;;;;;;;;;;5101296;28;20351;-82
2021/07/28 12:06:35;;;;;;;6.63;2.40;;;;;;;;;;5117389;28;20059;-83
2021/07/28 12:09:18;;;;;;;3.75;2.33;;;;;;;;;;5118538;28;20043;-83
2021/07/28 12:11:52;;;;;;;10.27;2.45;;;;;;;;;;5100971;28;20027;-83
2021/07/28 12:14:40;;;;;;;2.42;2.22;;;;;;;;;;5107967;28;20032;-83
2021/07/28 12:17:20;;;;;;;4.15;2.35;;;;;;;;;;5063251;28;20032;-83
2021/07/28 12:19:58;;;;;;;4.50;2.05;;;;;;;;;;5080511;28;20059;-83
2021/07/28 12:22:31;;;;;;;2.33;2.08;;;;;;;;;;5063563;28;20083;-83
2021/07/28 12:25:17;;;;;;;3.67;1.95;;;;;;;;;;5064841;28;20041;-83
2021/07/28 12:28:04;;;;;;;3.10;2.42;;;;;;;;;;5039726;28;20072;-83
2021/07/28 12:30:34;;;;;;;7.55;2.35;;;;;;;;;;5057053;28;20037;-83
2021/07/28 12:33:15;;;;;;;2.97;1.98;;;;;;;;;;5058284;28;20090;-83
2021/07/28 12:35:56;;;;;;;6.30;2.95;;;;;;;;;;5060233;28;20063;-83
2021/07/28 12:38:24;;;;;;;5.30;2.08;;;;;;;;;;5060299;28;20454;-83
2021/07/28 12:40:51;;;;;;;7.70;2.00;;;;;;;;;;5060283;28;20082;-84
2021/07/28 12:43:17;;;;;;;5.18;2.08;;;;;;;;;;5063951;28;20052;-83
2021/07/28 12:45:43;;;;;;;6.20;2.20;;;;;;;;;;5063671;28;20415;-82
2021/07/28 12:48:09;;;;;;;3.17;2.15;;;;;;;;;;5063230;28;20036;-83
2021/07/28 12:50:36;;;;;;;3.63;2.20;;;;;;;;;;5080232;28;20119;-83
2021/07/28 12:53:03;;;;;;;7.57;2.40;;;;;;;;;;5079616;28;20066;-83
2021/07/28 12:55:29;;;;;;;4.57;2.33;;;;;;;;;;5063326;28;20454;-83
2021/07/28 12:57:54;;;;;;;3.60;2.70;;;;;;;;;;5062718;28;20067;-83
2021/07/28 13:00:20;;;;;;;5.03;2.17;;;;;;;;;;5063558;28;20484;-83
2021/07/28 13:02:46;;;;;;;4.20;2.33;;;;;;;;;;5081842;28;20054;-83
2021/07/28 13:05:19;;;;;;;2.22;2.00;;;;;;;;;;5063804;28;20579;-83
2021/07/28 13:07:56;;;;;;;3.75;2.15;;;;;;;;;;5063362;28;20039;-84
2021/07/28 13:10:22;;;;;;;2.15;1.90;;;;;;;;;;5062511;28;20040;-83
2021/07/28 13:12:47;;;;;;;3.50;2.20;;;;;;;;;;5079274;28;20036;-78
2021/07/28 13:15:13;;;;;;;4.72;2.63;;;;;;;;;;5047283;28;20067;-84
2021/07/28 13:17:39;;;;;;;2.83;2.30;;;;;;;;;;5062855;28;20040;-83
2021/07/28 13:20:04;;;;;;;3.67;2.03;;;;;;;;;;5048355;28;20056;-82
2021/07/28 13:22:31;;;;;;;2.80;1.60;;;;;;;;;;5050523;28;20040;-82
2021/07/28 13:24:57;;;;;;;7.55;1.85;;;;;;;;;;5046530;28;20084;-80
2021/07/28 13:27:22;;;;;;;18.23;2.20;;;;;;;;;;5044393;28;20105;-83
2021/07/28 13:29:48;;;;;;;8.68;1.75;;;;;;;;;;5044036;28;20053;-81
2021/07/28 13:32:13;;;;;;;20.23;4.13;;;;;;;;;;5056102;28;20487;-81
2021/07/28 13:34:39;;;;;;;14.48;3.25;;;;;;;;;;5082663;28;20033;-82
2021/07/28 13:37:08;;;;;;;14.80;3.72;;;;;;;;;;5068544;28;20492;-82
2021/07/28 13:39:33;;;;;;;13.45;2.65;;;;;;;;;;5087702;28;20037;-81
2021/07/28 13:42:00;;;;;;;7.47;3.13;;;;;;;;;;5088932;28;20042;-80
2021/07/28 13:44:26;;;;;;;14.45;3.03;;;;;;;;;;5083436;28;20059;-84
2021/07/28 13:46:52;;;;;;;7.55;2.00;;;;;;;;;;5069712;28;20577;-80
2021/07/28 13:49:17;;;;;;;5.40;2.35;;;;;;;;;;5071015;28;20052;-80
2021/07/28 13:51:43;;;;;;;6.55;2.42;;;;;;;;;;5068970;28;20453;-80
2021/07/28 13:54:08;;;;;;;2.90;1.73;;;;;;;;;;5090119;28;20029;-80
2021/07/28 13:56:34;;;;;;;3.35;2.10;;;;;;;;;;5070961;28;20066;-80
2021/07/28 13:58:59;;;;;;;1.98;1.70;;;;;;;;;;5071555;28;20036;-79
2021/07/28 14:01:24;;;;;;;3.88;2.28;;;;;;;;;;5086627;28;20086;-79
2021/07/28 14:03:50;;;;;;;6.10;2.30;;;;;;;;;;5067553;28;20040;-79
2021/07/28 14:06:16;;;;;;;2.42;1.70;;;;;;;;;;5081089;28;20036;-78
2021/07/28 14:08:41;;;;;;;5.47;1.95;;;;;;;;;;5064645;28;20094;-79
2021/07/28 14:11:09;;;;;;;2.35;1.58;;;;;;;;;;5082262;28;20033;-79
2021/07/28 14:13:36;;;;;;;1.90;1.67;;;;;;;;;;5054801;28;20062;-79
2021/07/28 14:16:04;;;;;;;4.80;1.98;;;;;;;;;;5087575;28;20406;-80
2021/07/28 14:18:30;;;;;;;2.22;1.70;;;;;;;;;;5087570;28;20501;-80
2021/07/28 14:20:55;;;;;;;3.03;1.83;;;;;;;;;;5102119;28;20032;-79
2021/07/28 14:23:21;;;;;;;5.75;1.90;;;;;;;;;;5101250;28;20047;-79
2021/07/28 14:25:46;;;;;;;5.50;2.00;;;;;;;;;;5120036;28;20434;-79
2021/07/28 14:28:11;;;;;;;6.55;2.22;;;;;;;;;;5085781;28;20060;-79
2021/07/28 14:30:37;;;;;;;5.90;1.90;;;;;;;;;;5064394;28;20063;-79
2021/07/28 14:33:03;;;;;;;12.73;2.20;;;;;;;;;;5080273;28;20044;-79
2021/07/28 14:35:28;;;;;;;2.55;1.95;;;;;;;;;;5081367;28;20032;-80
2021/07/28 14:37:55;;;;;;;5.20;1.90;;;;;;;;;;5080388;28;20089;-79
2021/07/28 14:40:22;;;;;;;5.03;2.35;;;;;;;;;;5081361;28;20055;-79
2021/07/28 14:42:48;;;;;;;3.15;2.00;;;;;;;;;;5065528;28;20054;-80
2021/07/28 14:45:13;;;;;;;3.40;2.10;;;;;;;;;;5082941;28;20056;-79
2021/07/28 14:47:41;;;;;;;3.38;1.92;;;;;;;;;;5082265;28;20037;-80
2021/07/28 14:50:09;;;;;;;2.60;1.75;;;;;;;;;;5082572;28;20040;-80
2021/07/28 14:52:34;;;;;;;3.15;2.00;;;;;;;;;;5063935;28;20036;-80